Time;durP1;ratioP1;P1;durP2;ratioP2;P2;SDS_P1;SDS_P2;PMS_P1;PMS_P2;Temp;Humidity;BMP_temperature;BMP_pressure;BME280_temperature;BME280_humidity;BME280_pressure;Samples;Min_cycle;Max_cycle;Signal;HPM_P1;HPM_P2
2023/10/29 00:00:15;;;;;;;1.17;0.63;;;19.80;68.80;;;;;;5093779;28;20044;-63
2023/10/29 00:02:40;;;;;;;1.23;0.60;;;19.70;69.10;;;;;;5094335;28;20369;-63
2023/10/29 00:05:06;;;;;;;1.85;0.80;;;19.70;68.70;;;;;;5093128;28;20044;-63
2023/10/29 00:07:32;;;;;;;1.92;0.60;;;19.70;68.70;;;;;;5093401;28;20036;-63
2023/10/29 00:09:57;;;;;;;1.48;0.70;;;19.70;68.70;;;;;;5106858;28;20062;-63
2023/10/29 00:12:23;;;;;;;1.38;0.65;;;19.70;68.60;;;;;;5114471;28;20160;-62
2023/10/29 00:14:48;;;;;;;2.45;0.70;;;19.70;68.60;;;;;;5113714;28;20093;-63
2023/10/29 00:17:14;;;;;;;1.38;0.60;;;19.70;68.60;;;;;;5112776;28;20449;-63
2023/10/29 00:19:39;;;;;;;2.25;0.80;;;19.70;68.50;;;;;;5114622;28;20085;-63
2023/10/29 00:22:05;;;;;;;1.50;0.60;;;19.70;68.50;;;;;;5106333;28;20032;-62
2023/10/29 00:24:30;;;;;;;1.92;1.05;;;19.70;68.50;;;;;;5106758;28;20540;-63
2023/10/29 00:26:56;;;;;;;1.20;0.52;;;19.70;68.50;;;;;;5097801;28;20046;-63
2023/10/29 00:29:22;;;;;;;1.10;0.43;;;19.70;68.50;;;;;;5093049;28;20048;-63
2023/10/29 00:31:47;;;;;;;3.83;0.70;;;19.70;68.50;;;;;;5094003;28;20043;-63
2023/10/29 00:34:13;;;;;;;1.10;0.52;;;19.70;68.50;;;;;;5093511;28;20060;-63
2023/10/29 00:36:38;;;;;;;1.55;0.70;;;19.70;68.50;;;;;;5092804;28;20083;-63
2023/10/29 00:39:04;;;;;;;2.17;0.65;;;19.70;68.50;;;;;;5093684;28;20040;-63
2023/10/29 00:41:30;;;;;;;1.25;0.52;;;19.60;68.50;;;;;;5108973;28;20118;-63
2023/10/29 00:43:56;;;;;;;1.48;0.70;;;19.60;68.50;;;;;;5108614;28;20047;-63
2023/10/29 00:46:22;;;;;;;1.55;0.60;;;19.60;68.40;;;;;;5093585;28;20094;-63
2023/10/29 00:48:48;;;;;;;1.55;0.50;;;19.60;68.40;;;;;;5091452;28;20055;-63
2023/10/29 00:51:13;;;;;;;1.73;0.55;;;19.60;68.40;;;;;;5093236;28;20476;-63
2023/10/29 00:53:39;;;;;;;2.08;0.70;;;19.70;68.40;;;;;;5092329;28;20043;-63
2023/10/29 00:56:05;;;;;;;2.10;0.70;;;19.60;68.40;;;;;;5090626;28;20036;-63
2023/10/29 00:58:30;;;;;;;1.98;0.60;;;19.60;68.40;;;;;;5074952;28;20534;-63
2023/10/29 01:00:56;;;;;;;1.60;0.60;;;19.60;68.40;;;;;;5092101;28;20044;-63
2023/10/29 01:03:22;;;;;;;1.73;0.70;;;19.60;68.40;;;;;;5107974;28;20090;-63
2023/10/29 01:05:48;;;;;;;2.20;0.70;;;19.60;68.40;;;;;;5093286;28;20048;-63
2023/10/29 01:08:14;;;;;;;2.13;0.60;;;19.60;68.40;;;;;;5093566;28;20047;-63
2023/10/29 01:10:39;;;;;;;1.70;0.50;;;19.60;68.30;;;;;;5093405;28;20352;-66
2023/10/29 01:13:05;;;;;;;1.60;0.50;;;19.60;68.40;;;;;;5093275;28;20127;-63
2023/10/29 01:15:30;;;;;;;2.60;0.60;;;19.60;68.40;;;;;;5092727;28;20059;-62
2023/10/29 01:17:56;;;;;;;1.02;0.40;;;19.60;68.40;;;;;;5092352;28;20036;-63
2023/10/29 01:20:22;;;;;;;1.60;0.52;;;19.60;68.40;;;;;;5092667;28;20491;-63
2023/10/29 01:22:48;;;;;;;1.90;0.52;;;19.60;68.40;;;;;;5093092;28;20486;-63
2023/10/29 01:25:13;;;;;;;1.38;0.55;;;19.60;68.40;;;;;;5090395;28;20136;-63
2023/10/29 01:27:39;;;;;;;1.40;0.50;;;19.60;68.30;;;;;;5092857;28;20032;-63
2023/10/29 01:30:05;;;;;;;2.30;0.80;;;19.60;68.40;;;;;;5092910;28;20381;-62
2023/10/29 01:32:31;;;;;;;1.52;0.65;;;19.50;68.30;;;;;;5091867;28;20399;-63
2023/10/29 01:34:57;;;;;;;1.17;0.50;;;19.50;68.30;;;;;;5092734;28;20439;-63
2023/10/29 01:37:23;;;;;;;1.23;0.60;;;19.60;68.40;;;;;;5092749;28;20115;-63
2023/10/29 01:39:48;;;;;;;0.98;0.50;;;19.50;68.30;;;;;;5091912;28;20044;-63
2023/10/29 01:42:14;;;;;;;1.08;0.50;;;19.50;68.30;;;;;;5091539;28;20490;-63
2023/10/29 01:44:39;;;;;;;0.95;0.40;;;19.50;68.30;;;;;;5092785;28;20399;-63
2023/10/29 01:47:05;;;;;;;1.77;0.50;;;19.50;68.40;;;;;;5092100;28;20044;-63
2023/10/29 01:49:31;;;;;;;1.88;0.77;;;19.50;68.40;;;;;;5092558;28;20120;-63
2023/10/29 01:51:57;;;;;;;0.82;0.40;;;19.50;68.40;;;;;;5092445;28;20048;-63
2023/10/29 01:54:22;;;;;;;1.05;0.50;;;19.50;68.40;;;;;;5091968;28;20094;-64
2023/10/29 01:56:48;;;;;;;0.98;0.47;;;19.50;68.40;;;;;;5092645;28;20055;-63
2023/10/29 01:59:14;;;;;;;1.48;0.60;;;19.50;68.30;;;;;;5107208;28;20054;-63
2023/10/29 02:01:40;;;;;;;2.47;0.60;;;19.50;68.30;;;;;;5092656;28;20093;-63
2023/10/29 02:04:09;;;;;;;0.93;0.50;;;19.50;68.30;;;;;;5092759;28;20071;-63
2023/10/29 02:06:38;;;;;;;1.42;0.47;;;19.50;68.30;;;;;;5091697;28;20063;-63
2023/10/29 02:09:08;;;;;;;1.52;0.40;;;19.50;68.30;;;;;;5096649;28;20101;-62
2023/10/29 02:11:38;;;;;;;1.88;0.70;;;19.50;68.30;;;;;;5096892;28;20079;-63
2023/10/29 02:14:04;;;;;;;0.75;0.50;;;19.50;68.30;;;;;;5095798;28;20442;-63
2023/10/29 02:16:30;;;;;;;1.83;0.55;;;19.50;68.30;;;;;;5095999;28;20056;-63
2023/10/29 02:18:55;;;;;;;1.00;0.40;;;19.50;68.30;;;;;;5096535;28;20051;-63
2023/10/29 02:21:22;;;;;;;1.58;0.50;;;19.50;68.30;;;;;;5101484;28;20093;-63
2023/10/29 02:23:48;;;;;;;1.80;0.50;;;19.40;68.30;;;;;;5115426;28;20047;-63
2023/10/29 02:26:13;;;;;;;1.35;0.45;;;19.40;68.30;;;;;;5111403;28;20047;-63
2023/10/29 02:28:39;;;;;;;1.55;0.60;;;19.40;68.30;;;;;;5095725;28;20043;-63
2023/10/29 02:31:05;;;;;;;1.08;0.50;;;19.50;68.30;;;;;;5096278;28;20479;-63
2023/10/29 02:33:30;;;;;;;1.58;0.50;;;19.40;68.30;;;;;;5095852;28;20047;-63
2023/10/29 02:35:56;;;;;;;1.13;0.32;;;19.40;68.30;;;;;;5094424;28;20055;-63
2023/10/29 02:38:23;;;;;;;0.98;0.40;;;19.40;68.30;;;;;;5095597;28;20501;-63
2023/10/29 02:40:48;;;;;;;1.73;0.60;;;19.40;68.30;;;;;;5094720;28;20387;-63
2023/10/29 02:43:14;;;;;;;1.77;0.50;;;19.40;68.30;;;;;;5094700;28;20483;-63
2023/10/29 02:45:40;;;;;;;0.95;0.40;;;19.40;68.30;;;;;;5096040;28;20051;-63
2023/10/29 02:48:06;;;;;;;1.92;0.50;;;19.40;68.30;;;;;;5096166;28;20074;-63
2023/10/29 02:50:32;;;;;;;1.33;0.60;;;19.40;68.30;;;;;;5094753;28;20048;-63
2023/10/29 02:52:57;;;;;;;0.73;0.40;;;19.40;68.30;;;;;;5094484;28;20040;-63
2023/10/29 02:55:23;;;;;;;0.93;0.50;;;19.40;68.30;;;;;;5094747;28;20052;-63
2023/10/29 02:57:48;;;;;;;1.23;0.50;;;19.40;68.30;;;;;;5095946;28;20135;-63
2023/10/29 03:00:14;;;;;;;1.15;0.50;;;19.40;68.30;;;;;;5094147;28;20079;-62
2023/10/29 03:02:40;;;;;;;1.35;0.50;;;19.40;68.30;;;;;;5115048;28;20043;-63
2023/10/29 03:05:06;;;;;;;1.55;0.40;;;19.40;68.30;;;;;;5114278;28;20040;-63
2023/10/29 03:07:31;;;;;;;1.20;0.47;;;19.40;68.30;;;;;;5096922;28;20036;-63
2023/10/29 03:09:57;;;;;;;0.50;0.40;;;19.40;68.30;;;;;;5113719;28;20047;-63
2023/10/29 03:12:22;;;;;;;1.48;0.52;;;19.30;68.20;;;;;;5115815;28;20039;-63
2023/10/29 03:14:48;;;;;;;1.63;0.47;;;19.30;68.30;;;;;;5115711;28;20131;-63
2023/10/29 03:17:13;;;;;;;0.98;0.40;;;19.30;68.20;;;;;;5114427;28;20048;-63
2023/10/29 03:19:39;;;;;;;0.85;0.40;;;19.30;68.20;;;;;;5114557;28;20402;-63
2023/10/29 03:22:05;;;;;;;1.00;0.40;;;19.30;68.30;;;;;;5114360;28;20123;-63
2023/10/29 03:24:30;;;;;;;0.85;0.40;;;19.30;68.30;;;;;;5114940;28;20544;-62
2023/10/29 03:26:56;;;;;;;1.67;0.40;;;19.30;68.30;;;;;;5116458;28;20046;-63
2023/10/29 03:29:21;;;;;;;1.25;0.45;;;19.30;68.90;;;;;;5115336;28;20504;-63
2023/10/29 03:31:47;;;;;;;0.60;0.35;;;19.30;68.30;;;;;;5114762;28;20537;-63
2023/10/29 03:34:13;;;;;;;0.73;0.40;;;19.30;68.30;;;;;;5115167;28;20039;-63
2023/10/29 03:36:39;;;;;;;0.90;0.47;;;19.30;68.30;;;;;;5115269;28;20040;-63
2023/10/29 03:39:05;;;;;;;0.93;0.40;;;19.30;68.30;;;;;;5114453;28;20047;-63
2023/10/29 03:41:30;;;;;;;1.13;0.30;;;19.30;68.30;;;;;;5114907;28;20170;-63
2023/10/29 03:43:57;;;;;;;0.75;0.40;;;19.30;68.40;;;;;;5113974;28;20151;-62
2023/10/29 03:46:22;;;;;;;1.02;0.43;;;19.30;68.30;;;;;;5113063;28;20047;-63
2023/10/29 03:48:48;;;;;;;0.52;0.32;;;19.30;68.40;;;;;;5115348;28;20043;-62
2023/10/29 03:51:14;;;;;;;1.23;0.50;;;19.40;68.40;;;;;;5114611;28;20031;-63
2023/10/29 03:53:40;;;;;;;2.22;0.60;;;19.40;68.40;;;;;;5114049;28;20043;-63
2023/10/29 03:56:05;;;;;;;1.30;0.40;;;19.40;68.40;;;;;;5114077;28;20039;-63
2023/10/29 03:58:31;;;;;;;0.40;0.30;;;19.40;68.40;;;;;;5114693;28;20475;-63
2023/10/29 04:00:57;;;;;;;0.90;0.40;;;19.40;68.40;;;;;;5114315;28;20047;-62
2023/10/29 04:03:22;;;;;;;1.20;0.40;;;19.40;68.40;;;;;;5114553;28;20032;-63
2023/10/29 04:05:48;;;;;;;0.75;0.32;;;19.40;68.40;;;;;;5113895;28;20043;-63
2023/10/29 04:08:13;;;;;;;0.85;0.40;;;19.40;68.40;;;;;;5114351;28;20051;-63
2023/10/29 04:10:39;;;;;;;2.47;0.40;;;19.50;68.40;;;;;;5113655;28;20562;-62
2023/10/29 04:13:05;;;;;;;0.77;0.60;;;19.40;68.40;;;;;;5114049;28;20047;-63
2023/10/29 04:15:30;;;;;;;0.30;0.30;;;19.50;68.40;;;;;;5113965;28;20044;-63
2023/10/29 04:17:56;;;;;;;0.82;0.30;;;19.50;68.40;;;;;;5113235;28;20043;-63
2023/10/29 04:20:23;;;;;;;1.45;0.40;;;19.50;68.40;;;;;;5113607;28;20075;-63
2023/10/29 04:22:48;;;;;;;1.33;0.30;;;19.50;68.40;;;;;;5113343;28;20123;-63
2023/10/29 04:25:14;;;;;;;2.17;0.50;;;19.50;68.40;;;;;;5114184;28;20453;-63
2023/10/29 04:27:40;;;;;;;0.60;0.35;;;19.50;68.40;;;;;;5112241;28;20036;-63
2023/10/29 04:30:06;;;;;;;1.63;0.70;;;19.50;68.40;;;;;;5114227;28;20046;-63
2023/10/29 04:32:32;;;;;;;1.35;0.50;;;19.50;68.40;;;;;;5112728;28;20126;-63
2023/10/29 04:34:57;;;;;;;0.40;0.30;;;19.60;68.40;;;;;;5113754;28;20122;-63
2023/10/29 04:37:23;;;;;;;0.85;0.40;;;19.60;68.50;;;;;;5113860;28;20127;-63
2023/10/29 04:39:50;;;;;;;1.58;0.47;;;19.60;68.40;;;;;;5114118;28;20047;-62
2023/10/29 04:42:15;;;;;;;1.17;0.30;;;19.60;68.40;;;;;;5113307;28;20043;-63
2023/10/29 04:44:41;;;;;;;1.45;0.30;;;19.60;68.40;;;;;;5114184;28;20070;-63
2023/10/29 04:47:07;;;;;;;0.98;0.40;;;19.60;68.40;;;;;;5113934;28;20061;-63
2023/10/29 04:49:32;;;;;;;1.10;0.50;;;19.60;68.40;;;;;;5112979;28;20043;-63
2023/10/29 04:51:58;;;;;;;1.23;0.40;;;19.70;68.40;;;;;;5113655;28;20054;-63
2023/10/29 04:54:23;;;;;;;1.38;0.38;;;19.70;68.40;;;;;;5113621;28;20046;-63
2023/10/29 04:56:49;;;;;;;0.65;0.30;;;19.70;68.40;;;;;;5113218;28;20438;-63
2023/10/29 04:59:14;;;;;;;1.25;0.50;;;19.70;69.00;;;;;;5113524;28;20043;-63
2023/10/29 05:01:40;;;;;;;0.65;0.30;;;19.70;68.40;;;;;;5105775;28;20050;-63
2023/10/29 05:04:05;;;;;;;0.80;0.50;;;19.70;68.30;;;;;;5110287;28;20044;-63
2023/10/29 05:06:31;;;;;;;1.23;0.50;;;19.80;68.40;;;;;;5113020;28;20452;-63
2023/10/29 05:08:58;;;;;;;1.05;0.30;;;19.80;68.40;;;;;;5112747;28;20043;-63
2023/10/29 05:11:23;;;;;;;0.52;0.30;;;19.80;68.40;;;;;;5111967;28;20054;-63
2023/10/29 05:13:49;;;;;;;0.70;0.30;;;19.80;68.40;;;;;;5113767;28;20118;-63
2023/10/29 05:16:14;;;;;;;1.42;0.30;;;19.80;68.40;;;;;;5112299;28;20043;-63
2023/10/29 05:18:40;;;;;;;1.42;0.50;;;19.80;68.30;;;;;;5112007;28;20043;-63
2023/10/29 05:21:07;;;;;;;1.17;0.50;;;19.80;68.30;;;;;;5113602;28;20046;-63
2023/10/29 05:23:34;;;;;;;0.73;0.30;;;19.80;68.30;;;;;;5112399;28;20054;-63
2023/10/29 05:25:59;;;;;;;0.70;0.30;;;19.90;68.40;;;;;;5113269;28;20113;-63
2023/10/29 05:28:26;;;;;;;1.33;0.32;;;19.90;68.40;;;;;;5113234;28;20063;-63
2023/10/29 05:30:52;;;;;;;0.75;0.40;;;19.90;68.40;;;;;;5112683;28;20569;-63
2023/10/29 05:33:18;;;;;;;1.25;0.38;;;19.90;68.40;;;;;;5112863;28;20083;-63
2023/10/29 05:35:44;;;;;;;0.70;0.30;;;19.90;68.30;;;;;;5112112;28;20126;-63
2023/10/29 05:38:09;;;;;;;1.15;0.47;;;19.90;68.40;;;;;;5112126;28;20138;-63
2023/10/29 05:40:35;;;;;;;1.20;0.50;;;19.90;68.40;;;;;;5111766;28;20043;-63
2023/10/29 05:43:00;;;;;;;0.73;0.30;;;19.90;68.30;;;;;;5113755;28;20497;-63
2023/10/29 05:45:27;;;;;;;0.50;0.30;;;19.90;68.30;;;;;;5112391;28;20508;-62
2023/10/29 05:47:52;;;;;;;1.40;0.50;;;19.90;68.30;;;;;;5113076;28;20055;-63
2023/10/29 05:50:18;;;;;;;1.05;0.40;;;20.00;68.40;;;;;;5111509;28;20036;-63
2023/10/29 05:52:45;;;;;;;0.93;0.40;;;20.00;68.40;;;;;;5110864;28;20067;-63
2023/10/29 05:55:11;;;;;;;0.47;0.30;;;20.00;68.40;;;;;;5111404;28;20039;-62
2023/10/29 05:57:37;;;;;;;0.45;0.40;;;20.00;68.30;;;;;;5111699;28;20042;-63
2023/10/29 06:00:04;;;;;;;1.17;0.50;;;20.00;68.30;;;;;;5112222;28;20075;-62
2023/10/29 06:02:29;;;;;;;1.30;0.30;;;20.00;68.40;;;;;;5112421;28;20471;-62
2023/10/29 06:04:55;;;;;;;1.95;0.43;;;20.00;68.30;;;;;;5111928;28;20042;-63
2023/10/29 06:07:20;;;;;;;0.90;0.30;;;20.00;68.30;;;;;;5110540;28;20066;-62
2023/10/29 06:09:47;;;;;;;1.13;0.40;;;20.00;68.30;;;;;;5112979;28;20126;-62
2023/10/29 06:12:13;;;;;;;0.30;0.20;;;20.00;68.30;;;;;;5111975;28;20044;-62
2023/10/29 06:14:38;;;;;;;0.82;0.50;;;20.00;68.40;;;;;;5102705;28;20051;-63
2023/10/29 06:17:04;;;;;;;0.93;0.30;;;20.10;68.40;;;;;;5111318;28;20139;-62
2023/10/29 06:19:31;;;;;;;2.08;0.70;;;20.10;68.30;;;;;;5111646;28;20054;-63
2023/10/29 06:21:56;;;;;;;1.33;0.30;;;20.10;68.30;;;;;;5112504;28;20429;-63
2023/10/29 06:24:22;;;;;;;1.85;0.40;;;20.10;68.30;;;;;;5112279;28;20567;-63
2023/10/29 06:26:47;;;;;;;2.03;0.30;;;20.10;68.30;;;;;;5112130;28;20044;-63
2023/10/29 06:29:13;;;;;;;2.42;0.47;;;20.10;68.30;;;;;;5111203;28;20043;-63
2023/10/29 06:31:39;;;;;;;1.05;0.40;;;20.10;68.20;;;;;;5111484;28;20112;-63
2023/10/29 06:34:05;;;;;;;4.57;0.73;;;20.10;68.40;;;;;;5108413;28;20051;-63
2023/10/29 06:36:30;;;;;;;3.25;0.50;;;20.10;68.20;;;;;;5112035;28;20061;-63
2023/10/29 06:38:57;;;;;;;2.10;0.45;;;20.10;68.30;;;;;;5109393;28;20040;-63
2023/10/29 06:41:22;;;;;;;1.02;0.40;;;20.10;68.30;;;;;;5111467;28;20047;-63
2023/10/29 06:43:48;;;;;;;2.35;0.38;;;20.10;68.30;;;;;;5112470;28;20043;-63
2023/10/29 06:46:15;;;;;;;2.53;0.57;;;20.10;68.50;;;;;;5110698;28;20088;-62
2023/10/29 06:48:41;;;;;;;3.13;0.50;;;20.20;68.50;;;;;;5111729;28;20048;-63
2023/10/29 06:51:10;;;;;;;2.17;0.40;;;20.20;68.60;;;;;;5111237;28;20040;-63
2023/10/29 06:53:36;;;;;;;1.15;0.30;;;20.20;68.60;;;;;;5113535;28;20044;-63
2023/10/29 06:56:02;;;;;;;7.53;0.45;;;20.20;68.60;;;;;;5115233;28;20077;-62
2023/10/29 06:58:28;;;;;;;1.88;0.40;;;20.20;68.70;;;;;;5115790;27;20051;-62
2023/10/29 07:00:54;;;;;;;2.80;0.50;;;20.20;68.70;;;;;;5115762;28;20035;-62
2023/10/29 07:03:19;;;;;;;2.92;0.30;;;20.20;68.70;;;;;;5114617;27;20055;-62
2023/10/29 07:05:45;;;;;;;3.90;0.55;;;20.20;68.70;;;;;;5115720;28;20487;-62
2023/10/29 07:08:10;;;;;;;3.30;0.50;;;20.20;68.80;;;;;;5114557;28;20150;-62
2023/10/29 07:10:36;;;;;;;0.77;0.45;;;20.20;68.80;;;;;;5113905;28;20458;-62
2023/10/29 07:13:02;;;;;;;2.42;0.30;;;20.20;68.80;;;;;;5115786;28;20050;-62
2023/10/29 07:15:28;;;;;;;1.88;0.40;;;20.20;68.80;;;;;;5114770;27;20122;-64
2023/10/29 07:17:53;;;;;;;1.88;0.35;;;20.30;68.80;;;;;;5113638;28;20487;-63
2023/10/29 07:20:19;;;;;;;1.50;0.30;;;20.30;68.90;;;;;;5115155;28;20053;-63
2023/10/29 07:22:44;;;;;;;2.03;0.50;;;20.30;68.90;;;;;;5113740;28;20475;-63
2023/10/29 07:25:10;;;;;;;2.08;0.40;;;20.30;68.90;;;;;;5114976;27;20372;-63
2023/10/29 07:27:36;;;;;;;0.93;0.30;;;20.30;68.90;;;;;;5115594;28;20035;-63
2023/10/29 07:30:02;;;;;;;1.92;0.32;;;20.30;68.90;;;;;;5114600;28;20093;-63
2023/10/29 07:32:28;;;;;;;2.65;0.32;;;20.30;68.80;;;;;;5113821;28;20048;-63
2023/10/29 07:34:54;;;;;;;1.70;0.50;;;20.30;68.80;;;;;;5115313;28;20050;-63
2023/10/29 07:37:19;;;;;;;3.00;0.38;;;20.30;68.80;;;;;;5114193;28;20114;-64
2023/10/29 07:39:45;;;;;;;1.63;0.28;;;20.30;68.80;;;;;;5127115;27;20379;-64
2023/10/29 07:42:10;;;;;;;1.25;0.43;;;20.30;68.80;;;;;;5134062;27;20039;-64
2023/10/29 07:44:36;;;;;;;1.73;0.40;;;20.30;68.80;;;;;;5134426;27;20080;-62
2023/10/29 07:47:07;;;;;;;1.88;0.45;;;20.30;68.70;;;;;;5135565;27;20035;-63
2023/10/29 07:49:35;;;;;;;3.85;0.57;;;20.30;68.60;;;;;;5133762;27;20050;-64
2023/10/29 07:52:00;;;;;;;2.45;0.40;;;20.30;68.60;;;;;;5134688;27;20176;-65
2023/10/29 07:54:27;;;;;;;0.80;0.30;;;20.30;68.70;;;;;;5133891;27;20541;-64
2023/10/29 07:56:53;;;;;;;3.90;0.50;;;20.40;68.80;;;;;;5135369;27;20474;-63
2023/10/29 07:59:18;;;;;;;2.72;0.55;;;20.40;68.70;;;;;;5135726;27;20083;-64
2023/10/29 08:01:45;;;;;;;6.35;0.70;;;20.40;68.70;;;;;;5121124;27;20056;-64
2023/10/29 08:04:10;;;;;;;2.55;0.40;;;20.40;68.60;;;;;;5112404;27;20043;-65
2023/10/29 08:06:36;;;;;;;3.85;0.68;;;20.40;68.60;;;;;;5113405;28;20044;-65
2023/10/29 08:09:02;;;;;;;4.03;0.60;;;20.50;68.60;;;;;;5113104;28;20035;-64
2023/10/29 08:11:27;;;;;;;1.55;0.30;;;20.50;68.50;;;;;;5114193;28;20130;-64
2023/10/29 08:13:53;;;;;;;2.08;0.35;;;20.50;68.50;;;;;;5113544;27;20031;-65
2023/10/29 08:16:18;;;;;;;1.35;0.50;;;20.50;68.40;;;;;;5112828;28;20059;-66
2023/10/29 08:18:44;;;;;;;4.40;0.52;;;20.50;68.40;;;;;;5113427;28;20032;-66
2023/10/29 08:21:09;;;;;;;3.63;0.50;;;20.50;68.50;;;;;;5111429;28;20359;-65
2023/10/29 08:23:35;;;;;;;3.60;0.40;;;20.50;68.60;;;;;;5113109;28;20097;-65
2023/10/29 08:26:01;;;;;;;2.05;0.60;;;20.50;68.50;;;;;;5111837;28;20535;-66
2023/10/29 08:28:27;;;;;;;4.10;0.77;;;20.50;68.60;;;;;;5112882;28;20080;-65
2023/10/29 08:30:54;;;;;;;2.72;0.75;;;20.50;68.50;;;;;;5111980;28;20067;-64
2023/10/29 08:33:20;;;;;;;2.25;0.40;;;20.50;68.40;;;;;;5108936;28;20044;-63
2023/10/29 08:35:46;;;;;;;2.05;0.65;;;20.50;68.40;;;;;;5113175;28;20535;-63
2023/10/29 08:38:12;;;;;;;2.58;0.73;;;20.50;68.40;;;;;;5103907;28;20036;-63
2023/10/29 08:40:37;;;;;;;3.08;0.45;;;20.60;68.30;;;;;;5091484;28;20491;-63
2023/10/29 08:43:06;;;;;;;3.88;0.45;;;20.60;68.20;;;;;;5093811;28;20036;-63
2023/10/29 08:45:32;;;;;;;1.98;0.40;;;20.60;68.10;;;;;;5093240;28;20502;-63
2023/10/29 08:47:57;;;;;;;3.80;0.60;;;20.60;68.00;;;;;;5099062;28;20044;-63
2023/10/29 08:50:23;;;;;;;1.15;0.40;;;20.60;68.00;;;;;;5112522;28;20043;-64
2023/10/29 08:52:48;;;;;;;1.38;0.40;;;20.60;68.00;;;;;;5112730;28;20055;-63
2023/10/29 08:55:15;;;;;;;2.28;0.50;;;20.60;67.90;;;;;;5111647;28;20036;-64
2023/10/29 08:57:40;;;;;;;2.17;0.50;;;20.60;67.80;;;;;;5109715;28;20111;-64
2023/10/29 09:00:06;;;;;;;1.20;0.32;;;20.70;67.80;;;;;;5107049;28;20479;-63
2023/10/29 09:02:32;;;;;;;3.33;0.70;;;20.70;67.80;;;;;;5111735;27;20038;-62
2023/10/29 09:04:57;;;;;;;1.60;0.55;;;20.70;67.70;;;;;;5126578;27;20039;-63
2023/10/29 09:07:25;;;;;;;2.47;0.50;;;20.70;67.70;;;;;;5112879;28;20036;-62
2023/10/29 09:09:51;;;;;;;1.03;0.30;;;20.70;67.60;;;;;;5099559;28;20127;-62
2023/10/29 09:12:16;;;;;;;1.13;0.30;;;20.70;67.60;;;;;;5111748;28;20510;-62
2023/10/29 09:14:42;;;;;;;1.83;0.40;;;20.70;67.50;;;;;;5105181;28;20047;-63
2023/10/29 09:17:07;;;;;;;2.22;0.52;;;20.70;67.50;;;;;;5109792;28;20054;-63
2023/10/29 09:19:33;;;;;;;3.08;0.60;;;20.70;68.00;;;;;;5111968;28;20123;-63
2023/10/29 09:21:59;;;;;;;2.50;0.40;;;20.70;67.40;;;;;;5111868;28;20129;-63
2023/10/29 09:24:25;;;;;;;5.20;0.88;;;20.60;67.40;;;;;;5110775;28;20122;-63
2023/10/29 09:26:50;;;;;;;5.75;0.50;;;20.60;67.20;;;;;;5111966;28;20092;-63
2023/10/29 09:29:16;;;;;;;4.43;0.50;;;20.60;67.10;;;;;;5110798;28;20403;-63
2023/10/29 09:31:42;;;;;;;4.35;0.57;;;20.60;67.10;;;;;;5111701;28;20048;-70
2023/10/29 09:34:08;;;;;;;4.03;0.40;;;20.60;66.90;;;;;;5111810;28;20044;-63
2023/10/29 09:36:33;;;;;;;7.07;0.90;;;20.60;66.80;;;;;;5110825;28;20089;-63
2023/10/29 09:38:59;;;;;;;5.32;1.13;;;20.50;67.30;;;;;;5111899;28;20079;-63
2023/10/29 09:41:25;;;;;;;7.55;1.10;;;20.50;66.60;;;;;;5111497;28;20043;-64
2023/10/29 09:43:52;;;;;;;5.15;1.02;;;20.50;67.10;;;;;;5112249;28;20145;-63
2023/10/29 09:46:17;;;;;;;7.45;0.80;;;20.50;66.50;;;;;;5111231;28;20040;-63
2023/10/29 09:48:44;;;;;;;12.23;0.95;;;20.50;66.60;;;;;;5094807;28;20067;-65
2023/10/29 09:51:09;;;;;;;6.03;0.98;;;20.50;66.60;;;;;;5111872;28;20048;-63
2023/10/29 09:53:36;;;;;;;7.47;1.00;;;20.50;66.70;;;;;;5111709;28;20100;-64
2023/10/29 09:56:02;;;;;;;6.80;0.90;;;20.50;66.70;;;;;;5111665;28;20071;-63
2023/10/29 09:58:28;;;;;;;15.43;1.55;;;20.50;66.70;;;;;;5110531;28;20047;-63
2023/10/29 10:00:54;;;;;;;9.70;1.52;;;20.50;66.70;;;;;;5111815;28;20074;-63
2023/10/29 10:03:20;;;;;;;8.27;1.30;;;20.50;66.80;;;;;;5112548;28;20376;-63
2023/10/29 10:05:46;;;;;;;7.68;1.17;;;20.50;66.80;;;;;;5110778;28;20039;-64
2023/10/29 10:08:12;;;;;;;12.55;1.65;;;20.50;66.90;;;;;;5111280;28;20092;-64
2023/10/29 10:10:42;;;;;;;7.45;1.40;;;20.50;67.00;;;;;;5111639;28;20050;-64
2023/10/29 10:13:08;;;;;;;7.95;1.45;;;20.50;67.00;;;;;;5111980;28;20066;-63
2023/10/29 10:15:35;;;;;;;9.82;1.60;;;20.50;67.10;;;;;;5111185;28;20487;-63
2023/10/29 10:18:06;;;;;;;6.55;0.93;;;20.50;67.10;;;;;;5112453;28;20046;-63
2023/10/29 10:20:32;;;;;;;6.95;1.25;;;20.50;67.00;;;;;;5111341;28;20123;-63
2023/10/29 10:23:05;;;;;;;5.45;1.10;;;20.50;66.90;;;;;;5110599;28;20075;-63
2023/10/29 10:25:31;;;;;;;7.70;1.60;;;20.50;66.70;;;;;;5109561;28;20078;-70
2023/10/29 10:27:58;;;;;;;7.90;1.60;;;20.50;66.60;;;;;;5112559;28;20428;-70
2023/10/29 10:30:31;;;;;;;9.45;1.40;;;20.40;66.40;;;;;;5114828;28;20407;-71
2023/10/29 10:33:22;;;;;;;9.75;1.38;;;20.50;66.30;;;;;;5112396;28;20051;-73
2023/10/29 10:35:50;;;;;;;9.32;1.70;;;20.40;66.30;;;;;;5114034;28;20508;-65
2023/10/29 10:38:19;;;;;;;8.27;1.85;;;20.40;66.50;;;;;;5114627;28;20552;-70
2023/10/29 10:40:45;;;;;;;10.93;1.80;;;20.50;66.60;;;;;;5114526;28;20044;-69
2023/10/29 10:43:10;;;;;;;7.72;1.95;;;20.50;66.80;;;;;;5116187;28;20042;-72
2023/10/29 10:45:36;;;;;;;9.80;1.67;;;20.50;66.90;;;;;;5115218;28;20619;-70
2023/10/29 10:48:04;;;;;;;7.32;1.95;;;20.50;67.10;;;;;;5114372;28;20762;-66
2023/10/29 10:50:30;;;;;;;11.60;1.50;;;20.50;67.10;;;;;;5115023;28;20108;-73
2023/10/29 10:52:56;;;;;;;8.63;1.88;;;20.50;67.20;;;;;;5116025;28;20043;-63
2023/10/29 10:55:22;;;;;;;12.30;2.58;;;20.50;67.40;;;;;;5080286;28;20082;-64
2023/10/29 10:57:51;;;;;;;7.50;1.77;;;20.50;67.40;;;;;;5081408;28;20079;-64
2023/10/29 11:00:18;;;;;;;9.25;2.13;;;20.50;67.50;;;;;;5115683;27;20103;-64
2023/10/29 11:02:44;;;;;;;6.63;1.58;;;20.50;67.50;;;;;;5115536;28;20118;-64
2023/10/29 11:05:11;;;;;;;13.43;1.90;;;20.50;67.50;;;;;;5115873;28;20036;-64
2023/10/29 11:07:36;;;;;;;9.60;2.33;;;20.50;67.50;;;;;;5115291;28;20039;-64
2023/10/29 11:10:05;;;;;;;7.60;2.13;;;20.50;67.70;;;;;;5115086;28;20449;-64
2023/10/29 11:12:34;;;;;;;6.13;1.80;;;20.50;67.70;;;;;;5115261;28;20462;-64
2023/10/29 11:15:19;;;;;;;9.00;1.85;;;20.50;67.70;;;;;;5114458;28;20043;-64
2023/10/29 11:17:52;;;;;;;8.98;2.03;;;20.50;67.70;;;;;;5115850;28;20035;-64
2023/10/29 11:20:41;;;;;;;9.93;1.77;;;20.50;67.70;;;;;;5115316;28;20039;-64
2023/10/29 11:23:12;;;;;;;7.82;1.65;;;20.50;67.80;;;;;;5113689;28;20136;-64
2023/10/29 11:25:38;;;;;;;6.97;1.90;;;20.50;67.70;;;;;;5115505;28;20490;-63
2023/10/29 11:28:03;;;;;;;6.88;1.65;;;20.50;67.70;;;;;;5115635;28;20126;-63
2023/10/29 11:30:29;;;;;;;9.00;1.95;;;20.50;67.70;;;;;;5114284;28;20428;-63
2023/10/29 11:33:09;;;;;;;5.63;1.48;;;20.50;67.70;;;;;;5114153;28;20040;-63
2023/10/29 11:35:35;;;;;;;5.97;1.85;;;20.50;67.80;;;;;;5115575;28;20039;-63
2023/10/29 11:38:02;;;;;;;7.07;1.88;;;20.50;67.80;;;;;;5114085;28;20577;-63
2023/10/29 11:40:30;;;;;;;7.20;1.63;;;20.50;67.90;;;;;;5113000;28;20053;-64
2023/10/29 11:43:16;;;;;;;8.95;1.60;;;20.50;67.90;;;;;;5112964;28;20047;-63
2023/10/29 11:46:00;;;;;;;9.38;2.03;;;20.50;67.90;;;;;;5115196;28;20054;-63
2023/10/29 11:48:28;;;;;;;7.50;1.80;;;20.50;67.80;;;;;;5113175;28;20044;-65
2023/10/29 11:51:17;;;;;;;8.18;1.70;;;20.50;67.70;;;;;;5112107;28;20040;-62
2023/10/29 11:53:43;;;;;;;9.00;1.90;;;20.50;67.80;;;;;;5119082;27;20036;-61
2023/10/29 11:56:10;;;;;;;6.05;1.40;;;20.50;67.90;;;;;;5114366;28;20042;-61
2023/10/29 11:58:35;;;;;;;5.13;1.75;;;20.50;67.90;;;;;;5112222;28;20085;-62
2023/10/29 12:01:01;;;;;;;8.02;1.75;;;20.50;67.90;;;;;;5114040;28;20051;-62
2023/10/29 12:03:29;;;;;;;6.57;1.50;;;20.50;67.90;;;;;;5095461;28;20403;-61
2023/10/29 12:05:55;;;;;;;7.88;1.58;;;20.50;68.00;;;;;;5111929;28;20043;-61
2023/10/29 12:08:24;;;;;;;6.15;1.45;;;20.50;67.90;;;;;;5113044;28;20043;-61
2023/10/29 12:10:50;;;;;;;6.10;1.58;;;20.50;68.00;;;;;;5114534;28;20529;-61
2023/10/29 12:13:18;;;;;;;9.23;1.75;;;20.50;68.00;;;;;;5111449;28;20070;-61
2023/10/29 12:15:57;;;;;;;5.03;1.45;;;20.50;67.90;;;;;;5112630;28;20392;-62
2023/10/29 12:18:23;;;;;;;5.28;1.52;;;20.50;67.90;;;;;;5109410;28;20096;-61
2023/10/29 12:20:48;;;;;;;5.60;1.10;;;20.50;67.90;;;;;;5112394;28;20036;-62
2023/10/29 12:23:14;;;;;;;6.65;1.60;;;20.50;67.90;;;;;;5112133;28;20063;-61
2023/10/29 12:25:40;;;;;;;5.78;1.48;;;20.50;68.00;;;;;;5095179;28;20068;-61
2023/10/29 12:28:06;;;;;;;6.05;1.42;;;20.50;68.00;;;;;;5114184;28;20491;-61
2023/10/29 12:30:49;;;;;;;5.70;1.10;;;20.50;68.00;;;;;;5113630;28;20479;-61
2023/10/29 12:33:26;;;;;;;7.90;1.52;;;20.50;68.00;;;;;;5110951;28;20043;-60
2023/10/29 12:35:52;;;;;;;5.85;1.20;;;20.40;67.90;;;;;;5113698;28;20088;-60
2023/10/29 12:38:18;;;;;;;5.63;1.02;;;20.40;68.00;;;;;;5113129;28;20036;-60
2023/10/29 12:41:14;;;;;;;4.43;1.20;;;20.40;68.10;;;;;;5113205;28;20081;-61